Aérodrome :
LOGIN :

S'inscrire | Disclaimer

   EN    FR    IT 

 










Légende :    VFR   VFR Marginal   IFR   IFR Intensif   IFR Très Intensif
Visi : 
Plafond : 
>= 8 km
>= 3000ft
5 à 8 km
1000 à 3000 ft
1500m à 5 km
500 à 1000 ft
800 à 1500m
200 à 500 ft
< 800m
< 200 ft
Symboles :   Orages  Brouillard  Fortes neiges  Fortes précipitations  Vent > 20 kt
SIGMETs :   Divers  Orages  Givrage  Turbulence  Onde Orograph.  Cendres Volcan.







- Altitude de l'aérodrome : 405 ft
- Code IATA : ODH


EGVO - RAF Odiham

DERNIER METAR :
  • 181750Z 21009KT 9999 FEW040 06/05 Q1014 BLU NOSIG

METARs EXPIRÉS :
  • 181650Z 22010KT 9999 -RA FEW000 BKN040 07/05 Q1014 BLU NOSIG
  • 181640Z 22009KT 9999 -SHRA FEW008 BKN025 BKN050 07/05 Q1014 BLU NOSIG
  • 181610Z 24011KT 7000 -SHRA FEW009 SCT013 BKN030 07/05 Q1014 GRN TEMPO 9999 NSW FEW013 BKN025 BLU
  • 181550Z 25012KT 9999 -SHRA FEW009 SCT013 BKN035 07/05 Q1014 GRN TEMPO 7000 SHRA GRN

TAF TAF EGVO
Valide du 18 à 18h jusqu'au 19 à 06h UTC


181737Z 1818/1906 20012KT 9999 FEW030
PROB40 1900/1906 7000 BR
PROB30 1904/1906 4000 BR
Pas de NOTAMs connus pour ce terrain.



MET'MAP, la Météo Aéronautique d'un coup d'oeil ! - Copyright ORBIFLY Décembre 2007 - Disclaimer

ORBIFLY MET'MAP TEAM :

Programmation & Développement : Alexandra Zaïnal
Conception & Développement : Baudouin d'Aumeries
Co-Programmation & Développement : Marc-Olivier Méhu
Soutien technique & logistique : Manuel Goepfert

Contact : metmap@orbifly.com




SOURCES & CREDITS :

   NOAA